createdAt,value
2022-10-25T00:01:46.030Z,6.38
2022-10-25T00:04:14.047Z,6.05
2022-10-25T00:06:42.020Z,5.80
2022-10-25T00:09:09.880Z,6.30
2022-10-25T00:11:39.128Z,5.78
2022-10-25T00:14:07.687Z,6.13
2022-10-25T00:16:36.680Z,5.78
2022-10-25T00:19:04.940Z,6.13
2022-10-25T00:21:32.917Z,5.63
2022-10-25T00:24:00.814Z,6.25
2022-10-25T00:26:28.710Z,5.65
2022-10-25T00:28:57.967Z,5.93
2022-10-25T00:31:25.865Z,6.50
2022-10-25T00:33:53.768Z,5.68
2022-10-25T00:36:22.613Z,5.78
2022-10-25T00:38:50.578Z,6.30
2022-10-25T00:41:20.325Z,5.93
2022-10-25T00:43:48.967Z,5.78
2022-10-25T00:46:23.394Z,5.90
2022-10-25T00:48:54.533Z,5.72
2022-10-25T00:51:22.788Z,6.20
2022-10-25T00:53:50.670Z,5.88
2022-10-25T00:56:20.182Z,5.65
2022-10-25T00:58:50.326Z,5.85
2022-10-25T01:01:18.257Z,5.88
2022-10-25T01:03:48.146Z,5.80
2022-10-25T01:06:18.809Z,5.93
2022-10-25T01:08:46.939Z,5.60
2022-10-25T01:11:14.879Z,5.70
2022-10-25T01:13:42.723Z,5.97
2022-10-25T01:16:14.879Z,5.70
2022-10-25T01:18:45.954Z,5.78
2022-10-25T01:21:32.740Z,5.85
2022-10-25T01:24:16.302Z,5.82
2022-10-25T01:26:53.553Z,5.70
2022-10-25T01:29:34.332Z,5.82
2022-10-25T01:32:05.304Z,5.50
2022-10-25T01:34:34.328Z,5.90
2022-10-25T01:37:05.488Z,5.47
2022-10-25T01:39:34.761Z,5.55
2022-10-25T01:42:06.163Z,5.57
2022-10-25T01:44:40.741Z,5.57
2022-10-25T01:47:10.720Z,5.70
2022-10-25T01:49:41.300Z,5.68
2022-10-25T01:52:09.350Z,5.50
2022-10-25T01:54:37.399Z,5.30
2022-10-25T01:57:25.159Z,5.80
2022-10-25T02:00:07.152Z,5.40
2022-10-25T02:02:52.154Z,5.40
2022-10-25T02:05:23.580Z,5.20
2022-10-25T02:07:54.800Z,5.55
2022-10-25T02:10:24.962Z,5.72
2022-10-25T02:12:54.091Z,5.88
2022-10-25T02:15:23.638Z,5.32
2022-10-25T02:17:54.649Z,4.93
2022-10-25T02:20:23.484Z,5.72
2022-10-25T02:22:51.360Z,5.20
2022-10-25T02:25:19.529Z,5.70
2022-10-25T02:27:47.538Z,5.35
2022-10-25T02:30:15.654Z,5.50
2022-10-25T02:32:43.686Z,5.60
2022-10-25T02:35:14.731Z,5.00
2022-10-25T02:37:42.922Z,5.53
2022-10-25T02:40:11.315Z,5.65
2022-10-25T02:42:39.192Z,5.40
2022-10-25T02:45:08.200Z,5.07
2022-10-25T02:47:36.073Z,5.57
2022-10-25T02:50:04.192Z,5.07
2022-10-25T02:52:33.478Z,5.10
2022-10-25T02:55:01.395Z,5.00
2022-10-25T02:57:33.805Z,5.18
2022-10-25T03:00:01.854Z,5.30
2022-10-25T03:02:29.802Z,5.22
2022-10-25T03:04:57.680Z,5.55
2022-10-25T03:07:25.651Z,5.35
2022-10-25T03:09:54.911Z,4.90
2022-10-25T03:12:22.797Z,5.32
2022-10-25T03:14:50.671Z,5.03
2022-10-25T03:17:18.619Z,5.20
2022-10-25T03:19:46.527Z,5.47
2022-10-25T03:22:14.383Z,5.35
2022-10-25T03:24:42.244Z,4.95
2022-10-25T03:27:11.469Z,4.95
2022-10-25T03:29:39.363Z,5.10
2022-10-25T03:32:07.841Z,5.15
2022-10-25T03:34:35.715Z,5.50
2022-10-25T03:37:03.713Z,4.97
2022-10-25T03:39:31.635Z,5.13
2022-10-25T03:41:59.518Z,5.00
2022-10-25T03:44:28.732Z,5.43
2022-10-25T03:46:56.580Z,5.22
2022-10-25T03:49:25.516Z,4.70
2022-10-25T03:51:57.084Z,5.00
2022-10-25T03:54:29.264Z,4.82
2022-10-25T03:56:57.457Z,5.10
2022-10-25T03:59:25.367Z,5.18
2022-10-25T04:01:54.689Z,5.30
2022-10-25T04:04:22.643Z,5.28
2022-10-25T04:06:50.523Z,5.10
2022-10-25T04:09:18.466Z,4.85
2022-10-25T04:11:46.318Z,5.00
2022-10-25T04:14:14.532Z,4.78
2022-10-25T04:16:42.432Z,4.40
2022-10-25T04:19:11.666Z,4.80
2022-10-25T04:21:39.526Z,4.95
2022-10-25T04:24:07.611Z,4.93
2022-10-25T04:26:36.588Z,5.00
2022-10-25T04:29:04.905Z,4.80
2022-10-25T04:31:32.765Z,4.80
2022-10-25T04:34:00.659Z,4.68
2022-10-25T04:36:30.957Z,4.65
2022-10-25T04:38:58.828Z,4.97
2022-10-25T04:41:26.814Z,4.70
2022-10-25T04:43:54.708Z,4.63
2022-10-25T04:46:22.600Z,4.78
2022-10-25T04:48:50.565Z,4.70
2022-10-25T04:51:18.470Z,4.80
2022-10-25T04:53:47.674Z,4.75
2022-10-25T04:56:15.539Z,5.10
2022-10-25T04:58:43.401Z,4.57
2022-10-25T05:01:12.139Z,4.45
2022-10-25T05:03:40.075Z,4.88
2022-10-25T05:06:09.216Z,4.63
2022-10-25T05:08:37.234Z,4.32
2022-10-25T05:11:06.483Z,4.20
2022-10-25T05:13:34.713Z,4.35
2022-10-25T05:16:02.685Z,4.47
2022-10-25T05:18:32.338Z,4.20
2022-10-25T05:21:01.152Z,4.57
2022-10-25T05:23:29.105Z,4.18
2022-10-25T05:26:04.211Z,4.47
2022-10-25T05:28:33.561Z,4.28
2022-10-25T05:31:04.395Z,4.60
2022-10-25T05:33:32.380Z,4.65
2022-10-25T05:36:00.678Z,4.90
2022-10-25T05:38:28.547Z,7.55
2022-10-25T05:40:56.613Z,8.27
2022-10-25T05:43:24.885Z,9.32
2022-10-25T05:45:54.387Z,8.68
2022-10-25T05:48:22.280Z,10.20
2022-10-25T05:50:53.441Z,10.40
2022-10-25T05:53:27.193Z,9.95
2022-10-25T05:55:55.076Z,8.15
2022-10-25T05:58:22.989Z,8.70
2022-10-25T06:00:50.919Z,9.10
2022-10-25T06:03:20.149Z,8.25
2022-10-25T06:05:48.000Z,9.07
2022-10-25T06:08:15.885Z,10.07
2022-10-25T06:10:43.969Z,10.00
2022-10-25T06:13:11.902Z,10.23
2022-10-25T06:15:39.788Z,10.50
2022-10-25T06:18:07.710Z,10.50
2022-10-25T06:20:37.119Z,9.10
2022-10-25T06:23:08.003Z,10.57
2022-10-25T06:25:38.361Z,9.43
2022-10-25T06:28:06.455Z,9.13
2022-10-25T06:30:34.544Z,9.73
2022-10-25T06:33:02.426Z,9.02
2022-10-25T06:35:30.444Z,9.38
2022-10-25T06:38:01.897Z,8.93
2022-10-25T06:40:29.804Z,9.25
2022-10-25T06:42:57.803Z,8.98
2022-10-25T06:45:25.701Z,9.73
2022-10-25T06:47:53.653Z,9.13
2022-10-25T06:50:21.569Z,8.95
2022-10-25T06:52:49.605Z,8.95
2022-10-25T06:55:18.991Z,9.48
2022-10-25T06:57:46.886Z,8.60
2022-10-25T07:00:15.451Z,8.88
2022-10-25T07:02:43.342Z,9.05
2022-10-25T07:05:11.253Z,9.10
2022-10-25T07:07:39.146Z,8.52
2022-10-25T07:10:07.415Z,8.82
2022-10-25T07:12:38.936Z,8.90
2022-10-25T07:15:07.869Z,9.15
2022-10-25T07:17:35.796Z,9.40
2022-10-25T07:20:03.682Z,8.80
2022-10-25T07:22:31.555Z,9.68
2022-10-25T07:24:59.474Z,9.27
2022-10-25T07:27:27.416Z,9.30
2022-10-25T07:29:56.654Z,9.02
2022-10-25T07:32:24.519Z,9.50
2022-10-25T07:34:52.436Z,8.38
2022-10-25T07:37:20.383Z,8.88
2022-10-25T07:39:48.255Z,8.63
2022-10-25T07:42:16.153Z,8.68
2022-10-25T07:44:44.073Z,9.25
2022-10-25T07:47:13.384Z,9.52
2022-10-25T07:49:41.330Z,9.15
2022-10-25T07:52:11.319Z,9.05
2022-10-25T07:54:39.306Z,8.48
2022-10-25T07:57:07.496Z,9.00
2022-10-25T07:59:35.396Z,8.35
2022-10-25T08:02:03.255Z,9.63
2022-10-25T08:04:33.134Z,9.18
2022-10-25T08:07:01.595Z,8.63
2022-10-25T08:09:44.216Z,9.27
2022-10-25T08:12:12.082Z,8.68
2022-10-25T08:14:41.673Z,8.60
2022-10-25T08:17:11.110Z,9.27
2022-10-25T08:19:40.383Z,8.75
2022-10-25T08:22:08.241Z,8.25
2022-10-25T08:24:38.670Z,8.93
2022-10-25T08:27:06.612Z,8.25
2022-10-25T08:29:34.530Z,8.82
2022-10-25T08:32:02.388Z,8.38
2022-10-25T08:34:33.060Z,8.40
2022-10-25T08:37:02.724Z,8.45
2022-10-25T08:39:30.693Z,9.05
2022-10-25T08:41:59.273Z,7.90
2022-10-25T08:44:38.735Z,8.75
2022-10-25T08:47:08.554Z,8.75
2022-10-25T08:49:42.313Z,8.40
2022-10-25T08:52:17.415Z,8.52
2022-10-25T08:54:46.721Z,8.85
2022-10-25T08:57:18.014Z,8.50
2022-10-25T08:59:48.255Z,8.55
2022-10-25T09:02:25.061Z,8.45
2022-10-25T09:04:53.079Z,8.10
2022-10-25T09:07:46.366Z,8.13
2022-10-25T09:10:20.435Z,8.70
2022-10-25T09:12:50.453Z,8.35
2022-10-25T09:15:20.970Z,8.52
2022-10-25T09:17:50.552Z,8.85
2022-10-25T09:20:21.158Z,8.05
2022-10-25T09:22:51.713Z,7.60
2022-10-25T09:25:22.655Z,8.45
2022-10-25T09:27:55.405Z,8.45
2022-10-25T09:30:23.317Z,8.30
2022-10-25T09:32:52.146Z,7.82
2022-10-25T09:35:22.107Z,8.55
2022-10-25T09:37:53.392Z,8.15
2022-10-25T09:40:22.596Z,8.27
2022-10-25T09:42:52.602Z,8.68
2022-10-25T09:45:23.953Z,7.80
2022-10-25T09:47:54.419Z,8.02
2022-10-25T09:50:25.198Z,8.27
2022-10-25T09:53:02.641Z,8.25
2022-10-25T09:55:33.595Z,7.72
2022-10-25T09:58:01.746Z,7.93
2022-10-25T10:00:29.662Z,8.02
2022-10-25T10:02:57.646Z,8.07
2022-10-25T10:05:25.633Z,7.85
2022-10-25T10:07:54.811Z,7.93
2022-10-25T10:10:25.333Z,7.75
2022-10-25T10:12:54.769Z,7.10
2022-10-25T10:15:24.571Z,8.25
2022-10-25T10:18:22.887Z,8.15
2022-10-25T10:21:08.414Z,7.50
2022-10-25T10:23:46.433Z,7.45
2022-10-25T10:26:19.451Z,8.02
2022-10-25T10:28:47.664Z,7.55
2022-10-25T10:31:15.531Z,7.63
2022-10-25T10:33:47.675Z,7.45
2022-10-25T10:36:23.559Z,7.75
2022-10-25T10:38:51.537Z,7.80
2022-10-25T10:41:25.501Z,7.70
2022-10-25T10:43:53.991Z,7.55
2022-10-25T10:46:24.641Z,7.68
2022-10-25T10:48:54.759Z,7.38
2022-10-25T10:51:42.936Z,7.53
2022-10-25T10:54:23.220Z,7.43
2022-10-25T10:57:00.053Z,7.60
2022-10-25T10:59:31.168Z,7.85
2022-10-25T11:01:59.259Z,6.97
2022-10-25T11:04:27.869Z,7.47
2022-10-25T11:06:56.000Z,7.32
2022-10-25T11:09:25.418Z,7.35
2022-10-25T11:12:08.421Z,7.50
2022-10-25T11:14:36.394Z,6.82
2022-10-25T11:17:06.794Z,7.32
2022-10-25T11:19:56.011Z,7.00
2022-10-25T11:25:22.740Z,7.15
2022-10-25T11:27:59.674Z,6.68
2022-10-25T11:30:28.820Z,6.72
2022-10-25T11:33:07.814Z,6.80
2022-10-25T11:35:50.171Z,6.57
2022-10-25T11:38:21.387Z,6.80
2022-10-25T11:40:56.496Z,7.03
2022-10-25T11:43:36.214Z,6.82
2022-10-25T11:46:04.997Z,6.55
2022-10-25T11:48:46.369Z,6.15
2022-10-25T11:51:17.912Z,6.60
2022-10-25T11:53:59.926Z,6.88
2022-10-25T11:56:30.250Z,6.88
2022-10-25T11:59:03.885Z,6.70
2022-10-25T12:01:38.776Z,6.28
2022-10-25T12:04:18.288Z,6.72
2022-10-25T12:06:49.159Z,6.50
2022-10-25T12:09:20.596Z,6.18
2022-10-25T12:11:49.372Z,6.32
2022-10-25T12:14:21.043Z,6.82
2022-10-25T12:16:49.006Z,6.68
2022-10-25T12:19:19.425Z,6.72
2022-10-25T12:21:48.757Z,6.28
2022-10-25T12:24:19.605Z,6.55
2022-10-25T12:26:47.522Z,6.30
2022-10-25T12:29:17.101Z,6.28
2022-10-25T12:31:47.774Z,6.20
2022-10-25T12:34:17.478Z,6.28
2022-10-25T12:36:46.517Z,5.85
2022-10-25T12:39:16.748Z,6.15
2022-10-25T12:41:45.310Z,6.18
2022-10-25T12:44:29.533Z,6.20
2022-10-25T12:47:13.310Z,6.30
2022-10-25T12:50:03.517Z,5.95
2022-10-25T12:52:33.492Z,6.38
2022-10-25T12:55:15.802Z,6.03
2022-10-25T12:57:48.325Z,6.20
2022-10-25T13:00:17.158Z,6.10
2022-10-25T13:03:27.785Z,6.10
2022-10-25T13:06:09.786Z,6.13
2022-10-25T13:08:39.110Z,6.22
2022-10-25T13:11:07.909Z,6.10
2022-10-25T13:13:38.953Z,6.28
2022-10-25T13:16:07.513Z,5.95
2022-10-25T13:18:44.540Z,5.82
2022-10-25T13:21:13.149Z,9.57
2022-10-25T13:23:59.345Z,8.00
2022-10-25T13:26:34.554Z,7.25
2022-10-25T13:29:03.922Z,6.90
2022-10-25T13:31:52.134Z,6.55
2022-10-25T13:34:39.105Z,6.80
2022-10-25T13:37:10.970Z,6.75
2022-10-25T13:39:39.831Z,6.82
2022-10-25T13:42:20.148Z,7.13
2022-10-25T13:44:55.133Z,7.18
2022-10-25T13:47:41.465Z,7.40
2022-10-25T13:52:52.397Z,7.72
2022-10-25T13:55:21.766Z,7.38
2022-10-25T13:57:51.658Z,7.70
2022-10-25T14:00:40.535Z,7.20
2022-10-25T14:03:34.582Z,7.43
2022-10-25T14:06:28.832Z,7.88
2022-10-25T14:09:09.852Z,7.32
2022-10-25T14:11:39.774Z,6.97
2022-10-25T14:14:15.249Z,6.93
2022-10-25T14:16:45.305Z,6.68
2022-10-25T14:19:15.503Z,7.10
2022-10-25T14:21:47.678Z,6.93
2022-10-25T14:24:16.540Z,7.00
2022-10-25T14:26:51.997Z,7.20
2022-10-25T14:29:21.368Z,7.22
2022-10-25T14:31:49.482Z,6.25
2022-10-25T14:34:20.449Z,6.60
2022-10-25T14:36:53.274Z,7.25
2022-10-25T14:39:22.951Z,7.20
2022-10-25T14:41:51.669Z,7.20
2022-10-25T14:44:25.281Z,6.47
2022-10-25T14:46:54.242Z,6.80
2022-10-25T14:49:22.410Z,6.78
2022-10-25T14:51:52.692Z,6.07
2022-10-25T14:54:26.283Z,6.22
2022-10-25T14:56:55.994Z,6.10
2022-10-25T14:59:26.451Z,6.63
2022-10-25T15:01:54.850Z,5.97
2022-10-25T15:04:32.731Z,6.22
2022-10-25T15:07:02.192Z,6.32
2022-10-25T15:09:42.377Z,5.85
2022-10-25T15:12:18.415Z,5.95
2022-10-25T15:14:48.245Z,6.53
2022-10-25T15:17:25.088Z,5.80
2022-10-25T15:20:07.053Z,5.53
2022-10-25T15:22:43.615Z,5.40
2022-10-25T15:25:19.412Z,5.78
2022-10-25T15:27:47.351Z,5.70
2022-10-25T15:30:36.208Z,5.65
2022-10-25T15:33:04.693Z,5.50
2022-10-25T15:35:33.220Z,5.57
2022-10-25T15:38:02.490Z,5.70
2022-10-25T15:40:30.369Z,5.57
2022-10-25T15:42:58.227Z,5.65
2022-10-25T15:45:26.099Z,5.28
2022-10-25T15:47:55.149Z,5.90
2022-10-25T15:50:23.048Z,5.30
2022-10-25T15:52:51.059Z,5.40
2022-10-25T15:55:21.876Z,5.60
2022-10-25T15:57:49.885Z,5.18
2022-10-25T16:00:18.660Z,5.30
2022-10-25T16:02:46.905Z,5.32
2022-10-25T16:05:18.796Z,5.05
2022-10-25T16:07:46.687Z,5.53
2022-10-25T16:10:14.705Z,5.88
2022-10-25T16:12:43.945Z,5.45
2022-10-25T16:15:11.937Z,4.72
2022-10-25T16:17:39.877Z,5.30
2022-10-25T16:20:12.837Z,5.00
2022-10-25T16:22:40.731Z,5.00
2022-10-25T16:25:09.517Z,5.13
2022-10-25T16:27:37.414Z,4.97
2022-10-25T16:30:11.190Z,4.78
2022-10-25T16:32:39.105Z,4.90
2022-10-25T16:55:31.417Z,5.10
2022-10-25T16:57:59.473Z,4.75
2022-10-25T17:00:27.578Z,4.70
2022-10-25T17:02:56.788Z,4.53
2022-10-25T17:05:25.697Z,4.45
2022-10-25T17:07:53.649Z,4.82
2022-10-25T17:10:21.747Z,4.25
2022-10-25T17:12:50.455Z,4.90
2022-10-25T17:15:18.709Z,4.60
2022-10-25T17:17:46.896Z,4.70
2022-10-25T17:20:17.208Z,4.28
2022-10-25T17:22:45.141Z,4.72
2022-10-25T17:25:13.121Z,4.85
2022-10-25T17:27:45.468Z,4.20
2022-10-25T17:30:16.059Z,4.38
2022-10-25T17:32:44.034Z,4.40
2022-10-25T17:35:12.370Z,4.30
2022-10-25T17:37:43.463Z,4.55
2022-10-25T17:40:13.662Z,4.13
2022-10-25T17:42:41.652Z,4.82
2022-10-25T17:45:10.523Z,4.20
2022-10-25T17:47:42.390Z,4.25
2022-10-25T17:50:11.155Z,4.50
2022-10-25T17:52:41.364Z,4.82
2022-10-25T17:55:11.713Z,4.35
2022-10-25T17:57:39.583Z,4.10
2022-10-25T18:00:08.763Z,4.20
2022-10-25T18:02:44.035Z,4.32
2022-10-25T18:05:21.013Z,3.97
2022-10-25T18:07:50.009Z,4.00
2022-10-25T18:10:19.710Z,4.15
2022-10-25T18:12:47.897Z,3.95
2022-10-25T18:15:16.106Z,3.83
2022-10-25T18:17:46.581Z,3.55
2022-10-25T18:20:15.462Z,4.32
2022-10-25T18:22:43.532Z,4.22
2022-10-25T18:25:11.622Z,3.85
2022-10-25T18:27:40.965Z,4.18
2022-10-25T18:30:10.561Z,4.10
2022-10-25T18:32:38.640Z,4.10
2022-10-25T18:35:07.287Z,4.15
2022-10-25T18:37:35.595Z,3.90
2022-10-25T18:40:03.684Z,3.80
2022-10-25T18:42:31.535Z,3.67
2022-10-25T18:45:00.881Z,3.90
2022-10-25T18:47:28.855Z,3.78
2022-10-25T18:49:56.807Z,3.78
2022-10-25T18:52:24.908Z,4.13
2022-10-25T18:54:55.086Z,4.05
2022-10-25T18:57:23.186Z,3.88
2022-10-25T18:59:51.526Z,3.70
2022-10-25T19:02:21.231Z,3.72
2022-10-25T19:04:49.632Z,3.70
2022-10-25T19:07:17.752Z,3.78
2022-10-25T19:09:45.943Z,4.13
2022-10-25T19:12:14.150Z,3.80
2022-10-25T19:14:42.386Z,3.50
2022-10-25T19:17:10.623Z,3.67
2022-10-25T19:19:40.170Z,3.58
2022-10-25T19:22:08.362Z,3.80
2022-10-25T19:24:38.295Z,3.80
2022-10-25T19:27:06.646Z,3.65
2022-10-25T19:29:35.273Z,3.58
2022-10-25T19:32:03.560Z,3.80
2022-10-25T19:34:31.733Z,3.63
2022-10-25T19:37:04.269Z,3.60
2022-10-25T19:39:32.543Z,3.40
2022-10-25T19:42:00.959Z,3.65
2022-10-25T19:44:29.165Z,3.25
2022-10-25T19:46:57.367Z,3.28
2022-10-25T19:49:25.413Z,3.22
2022-10-25T19:51:53.357Z,3.53
2022-10-25T19:54:22.598Z,3.60
2022-10-25T19:56:51.235Z,4.00
2022-10-25T19:59:19.269Z,3.38
2022-10-25T20:01:48.892Z,3.40
2022-10-25T20:04:16.884Z,3.72
2022-10-25T20:06:44.777Z,3.35
2022-10-25T20:09:12.811Z,3.45
2022-10-25T20:11:43.428Z,3.42
2022-10-25T20:14:11.497Z,3.28
2022-10-25T20:16:39.541Z,3.20
2022-10-25T20:19:07.797Z,3.30
2022-10-25T20:21:36.776Z,3.75
2022-10-25T20:24:06.295Z,3.70
2022-10-25T20:26:35.127Z,3.40
2022-10-25T20:29:05.505Z,3.35
2022-10-25T20:31:34.122Z,3.38
2022-10-25T20:34:02.505Z,3.50
2022-10-25T20:36:30.545Z,3.50
2022-10-25T20:38:58.416Z,3.20
2022-10-25T20:41:27.169Z,3.40
2022-10-25T20:43:55.957Z,3.35
2022-10-25T20:46:25.670Z,3.65
2022-10-25T20:48:53.657Z,3.22
2022-10-25T20:51:21.632Z,3.47
2022-10-25T20:53:49.647Z,3.38
2022-10-25T20:56:17.984Z,3.42
2022-10-25T20:58:46.035Z,3.10
2022-10-25T21:01:14.064Z,3.15
2022-10-25T21:03:43.408Z,3.47
2022-10-25T21:06:12.698Z,3.42
2022-10-25T21:08:40.603Z,3.40
2022-10-25T21:11:09.468Z,3.13
2022-10-25T21:13:37.832Z,3.10
2022-10-25T21:16:06.538Z,3.47
2022-10-25T21:18:34.495Z,3.30
2022-10-25T21:21:04.545Z,3.20
2022-10-25T21:23:32.457Z,3.00
2022-10-25T21:26:00.591Z,3.38
2022-10-25T21:28:28.467Z,3.03
2022-10-25T21:30:56.368Z,3.38
2022-10-25T21:33:24.265Z,3.28
2022-10-25T21:35:52.145Z,3.22
2022-10-25T21:38:21.393Z,3.25
2022-10-25T21:40:49.286Z,3.45
2022-10-25T21:43:17.140Z,3.30
2022-10-25T21:45:45.069Z,3.25
2022-10-25T21:48:12.969Z,2.95
2022-10-25T21:50:40.863Z,3.13
2022-10-25T21:53:08.728Z,3.10
2022-10-25T21:55:37.977Z,3.10
2022-10-25T21:58:05.872Z,3.00
2022-10-25T22:00:33.773Z,3.22
2022-10-25T22:03:01.682Z,3.10
2022-10-25T22:05:29.753Z,3.10
2022-10-25T22:07:57.691Z,3.38
2022-10-25T22:10:25.596Z,3.25
2022-10-25T22:12:57.404Z,3.67
2022-10-25T22:15:25.299Z,3.50
2022-10-25T22:17:53.299Z,3.67
2022-10-25T22:20:21.187Z,3.50
2022-10-25T22:22:49.387Z,3.67
2022-10-25T22:25:17.515Z,3.45
2022-10-25T22:27:45.433Z,3.55
2022-10-25T22:30:15.197Z,3.50
2022-10-25T22:32:43.131Z,3.30
2022-10-25T22:35:11.230Z,3.22
2022-10-25T22:37:39.163Z,3.15
2022-10-25T22:40:07.998Z,2.90
2022-10-25T22:42:35.875Z,3.03
2022-10-25T22:45:03.960Z,3.00
2022-10-25T22:47:33.213Z,3.10
2022-10-25T22:50:01.110Z,3.05
2022-10-25T22:52:29.006Z,3.30
2022-10-25T22:54:56.876Z,3.20
2022-10-25T22:57:24.803Z,3.17
2022-10-25T22:59:52.674Z,2.85
2022-10-25T23:02:20.577Z,3.30
2022-10-25T23:04:49.835Z,3.10
2022-10-25T23:07:17.732Z,3.22
2022-10-25T23:09:45.619Z,3.30
2022-10-25T23:12:13.541Z,3.35
2022-10-25T23:14:41.425Z,3.13
2022-10-25T23:17:09.377Z,3.20
2022-10-25T23:19:37.264Z,2.97
2022-10-25T23:22:06.476Z,3.50
2022-10-25T23:24:34.390Z,3.15
2022-10-25T23:27:02.380Z,3.67
2022-10-25T23:29:30.236Z,3.40
2022-10-25T23:31:58.327Z,3.15
2022-10-25T23:34:26.314Z,3.33
2022-10-25T23:36:54.172Z,3.40
2022-10-25T23:39:23.392Z,3.63
2022-10-25T23:41:56.583Z,3.20
2022-10-25T23:44:24.907Z,3.15
2022-10-25T23:46:52.846Z,3.20
2022-10-25T23:49:20.778Z,3.17
2022-10-25T23:51:48.665Z,3.15
2022-10-25T23:54:16.582Z,3.20
2022-10-25T23:56:45.784Z,3.25
2022-10-25T23:59:14.985Z,3.05
